createdAt,value
2023-10-06T00:00:55.996Z,87.43
2023-10-06T00:01:56.344Z,87.43
2023-10-06T00:02:55.395Z,87.53
2023-10-06T00:03:54.566Z,87.43
2023-10-06T00:04:55.702Z,87.43
2023-10-06T00:05:55.818Z,87.53
2023-10-06T00:06:56.012Z,87.53
2023-10-06T00:07:56.255Z,87.53
2023-10-06T00:08:56.328Z,87.53
2023-10-06T00:09:55.457Z,87.63
2023-10-06T00:10:55.661Z,87.63
2023-10-06T00:11:55.833Z,87.73
2023-10-06T00:12:55.979Z,87.84
2023-10-06T00:13:56.265Z,87.84
2023-10-06T00:14:55.334Z,87.88
2023-10-06T00:15:55.525Z,87.88
2023-10-06T00:16:55.730Z,87.98
2023-10-06T00:17:55.955Z,87.98
2023-10-06T00:18:56.108Z,87.98
2023-10-06T00:19:54.357Z,88.08
2023-10-06T00:20:55.433Z,88.08
2023-10-06T00:21:55.613Z,88.08
2023-10-06T00:22:54.930Z,88.18
2023-10-06T00:23:55.994Z,88.18
2023-10-06T00:24:54.166Z,88.18
2023-10-06T00:25:54.533Z,88.18
2023-10-06T00:26:54.531Z,88.08
2023-10-06T00:27:54.695Z,88.08
2023-10-06T00:28:55.936Z,88.08
2023-10-06T00:29:56.255Z,87.98
2023-10-06T00:30:54.233Z,87.98
2023-10-06T00:31:55.559Z,88.08
2023-10-06T00:32:55.621Z,88.08
2023-10-06T00:33:55.775Z,88.08
2023-10-06T00:34:55.957Z,88.08
2023-10-06T00:35:55.104Z,87.98
2023-10-06T00:36:54.283Z,87.98
2023-10-06T00:37:55.640Z,88.08
2023-10-06T00:38:55.687Z,88.08
2023-10-06T00:39:54.855Z,88.08
2023-10-06T00:40:54.103Z,88.18
2023-10-06T00:41:55.156Z,88.18
2023-10-06T00:42:54.396Z,88.08
2023-10-06T00:43:54.644Z,88.08
2023-10-06T00:44:54.699Z,88.08
2023-10-06T00:45:54.908Z,88.08
2023-10-06T00:46:54.159Z,87.98
2023-10-06T00:47:55.444Z,87.98
2023-10-06T00:48:55.404Z,87.88
2023-10-06T00:49:54.699Z,87.88
2023-10-06T00:50:55.787Z,87.88
2023-10-06T00:51:54.916Z,87.77
2023-10-06T00:52:55.127Z,87.77
2023-10-06T00:53:54.365Z,87.77
2023-10-06T00:54:55.517Z,87.77
2023-10-06T00:55:55.837Z,87.88
2023-10-06T00:56:54.921Z,87.88
2023-10-06T00:57:55.069Z,87.98
2023-10-06T00:58:55.268Z,87.98
2023-10-06T00:59:55.438Z,87.98
2023-10-06T01:00:54.642Z,87.88
2023-10-06T01:01:54.846Z,87.88
2023-10-06T01:02:55.026Z,87.88
2023-10-06T01:03:55.242Z,87.88
2023-10-06T01:04:55.315Z,87.98
2023-10-06T01:05:55.463Z,87.98
2023-10-06T01:06:54.628Z,87.98
2023-10-06T01:07:54.935Z,88.18
2023-10-06T01:08:54.119Z,88.18
2023-10-06T01:09:54.227Z,88.28
2023-10-06T01:10:54.454Z,88.28
2023-10-06T01:11:53.617Z,88.28
2023-10-06T01:12:53.763Z,88.28
2023-10-06T01:13:55.094Z,88.18
2023-10-06T01:14:55.106Z,88.28
2023-10-06T01:15:54.392Z,88.18
2023-10-06T01:16:54.564Z,88.28
2023-10-06T01:17:53.734Z,88.18
2023-10-06T01:18:54.848Z,88.18
2023-10-06T01:19:54.142Z,88.22
2023-10-06T01:20:55.208Z,88.32
2023-10-06T01:21:53.376Z,88.18
2023-10-06T01:22:54.555Z,88.22
2023-10-06T01:23:54.680Z,88.28
2023-10-06T01:24:53.943Z,88.28
2023-10-06T01:25:54.321Z,88.28
2023-10-06T01:26:55.334Z,88.28
2023-10-06T01:27:53.415Z,88.22
2023-10-06T01:28:53.656Z,88.22
2023-10-06T01:29:54.784Z,88.32
2023-10-06T01:30:54.953Z,88.43
2023-10-06T01:31:54.307Z,88.22
2023-10-06T01:32:53.407Z,88.12
2023-10-06T01:33:53.496Z,88.22
2023-10-06T01:34:53.712Z,88.22
2023-10-06T01:35:53.854Z,88.12
2023-10-06T01:36:54.041Z,88.22
2023-10-06T01:37:55.298Z,88.32
2023-10-06T01:38:53.388Z,88.32
2023-10-06T01:39:53.591Z,88.32
2023-10-06T01:40:55.187Z,88.32
2023-10-06T01:41:54.875Z,88.43
2023-10-06T01:42:58.902Z,88.53
2023-10-06T01:43:53.358Z,88.53
2023-10-06T01:44:54.376Z,88.53
2023-10-06T01:45:54.646Z,88.63
2023-10-06T01:46:54.959Z,88.63
2023-10-06T01:47:54.984Z,88.53
2023-10-06T01:48:53.142Z,88.53
2023-10-06T01:49:53.416Z,88.53
2023-10-06T01:50:53.484Z,88.53
2023-10-06T01:52:08.227Z,88.53
2023-10-06T01:52:54.872Z,88.53
2023-10-06T01:53:52.997Z,88.63
2023-10-06T01:54:54.150Z,88.73
2023-10-06T01:55:53.445Z,88.84
2023-10-06T01:56:53.587Z,88.84
2023-10-06T01:57:54.716Z,88.84
2023-10-06T01:58:52.957Z,88.73
2023-10-06T01:59:53.114Z,88.73
2023-10-06T02:00:53.447Z,88.73
2023-10-06T02:01:53.589Z,88.73
2023-10-06T02:02:53.755Z,88.63
2023-10-06T02:03:52.843Z,88.63
2023-10-06T02:04:53.036Z,88.63
2023-10-06T02:05:53.193Z,88.73
2023-10-06T02:06:53.404Z,88.63
2023-10-06T02:07:54.638Z,88.73
2023-10-06T02:08:52.755Z,88.73
2023-10-06T02:09:52.938Z,88.73
2023-10-06T02:10:53.126Z,88.73
2023-10-06T02:11:53.351Z,88.73
2023-10-06T02:12:53.525Z,88.78
2023-10-06T02:13:54.845Z,88.88
2023-10-06T02:14:52.889Z,88.88
2023-10-06T02:15:53.084Z,88.88
2023-10-06T02:16:53.394Z,88.78
2023-10-06T02:17:53.671Z,88.88
2023-10-06T02:18:52.714Z,88.98
2023-10-06T02:19:53.069Z,88.98
2023-10-06T02:20:53.160Z,89.08
2023-10-06T02:21:53.344Z,89.18
2023-10-06T02:22:53.596Z,89.28
2023-10-06T02:23:52.706Z,89.49
2023-10-06T02:24:53.866Z,89.73
2023-10-06T02:25:53.228Z,89.84
2023-10-06T02:26:53.272Z,90.04
2023-10-06T02:27:53.517Z,90.04
2023-10-06T02:28:52.629Z,90.04
2023-10-06T02:29:52.806Z,90.04
2023-10-06T02:30:53.020Z,90.04
2023-10-06T02:31:53.252Z,89.94
2023-10-06T02:32:53.386Z,89.84
2023-10-06T02:33:52.942Z,89.84
2023-10-06T02:34:52.864Z,89.73
2023-10-06T02:35:53.065Z,89.63
2023-10-06T02:36:53.166Z,89.73
2023-10-06T02:37:53.767Z,89.73
2023-10-06T02:38:52.535Z,89.63
2023-10-06T02:39:52.668Z,89.53
2023-10-06T02:40:52.899Z,89.63
2023-10-06T02:41:53.060Z,89.63
2023-10-06T02:42:53.283Z,89.73
2023-10-06T02:43:52.526Z,89.84
2023-10-06T02:44:53.610Z,89.84
2023-10-06T02:45:52.836Z,89.84
2023-10-06T02:46:53.085Z,89.84
2023-10-06T02:47:53.335Z,90.04
2023-10-06T02:48:52.398Z,90.04
2023-10-06T02:49:52.840Z,90.04
2023-10-06T02:50:52.774Z,89.94
2023-10-06T02:51:52.975Z,89.63
2023-10-06T02:52:52.200Z,89.73
2023-10-06T02:53:52.406Z,89.73
2023-10-06T02:54:52.622Z,89.73
2023-10-06T02:55:52.909Z,89.73
2023-10-06T02:56:52.993Z,89.63
2023-10-06T02:57:52.410Z,89.63
2023-10-06T02:58:52.393Z,89.73
2023-10-06T02:59:52.674Z,89.84
2023-10-06T03:00:52.794Z,89.94
2023-10-06T03:01:53.057Z,89.94
2023-10-06T03:02:52.192Z,90.04
2023-10-06T03:03:52.354Z,90.14
2023-10-06T03:04:53.553Z,90.04
2023-10-06T03:05:53.694Z,90.04
2023-10-06T03:06:52.937Z,90.25
2023-10-06T03:07:52.147Z,90.25
2023-10-06T03:08:52.283Z,90.25
2023-10-06T03:09:52.489Z,90.14
2023-10-06T03:10:53.661Z,90.04
2023-10-06T03:11:52.847Z,89.94
2023-10-06T03:12:52.987Z,89.94
2023-10-06T03:13:52.388Z,89.94
2023-10-06T03:14:52.419Z,90.04
2023-10-06T03:15:51.985Z,90.04
2023-10-06T03:16:52.234Z,90.04
2023-10-06T03:17:52.450Z,90.04
2023-10-06T03:18:52.545Z,90.14
2023-10-06T03:19:52.741Z,90.29
2023-10-06T03:20:51.881Z,90.29
2023-10-06T03:21:52.060Z,90.39
2023-10-06T03:22:52.296Z,90.39
2023-10-06T03:23:53.433Z,90.39
2023-10-06T03:24:52.721Z,90.39
2023-10-06T03:25:52.854Z,90.39
2023-10-06T03:26:52.032Z,90.39
2023-10-06T03:27:53.207Z,90.49
2023-10-06T03:28:52.528Z,90.59
2023-10-06T03:29:52.663Z,90.70
2023-10-06T03:30:51.875Z,90.64
2023-10-06T03:31:52.046Z,90.70
2023-10-06T03:32:52.242Z,90.70
2023-10-06T03:33:53.409Z,90.64
2023-10-06T03:34:52.594Z,90.53
2023-10-06T03:35:52.799Z,90.43
2023-10-06T03:36:52.084Z,90.53
2023-10-06T03:37:53.847Z,90.53
2023-10-06T03:38:53.404Z,90.64
2023-10-06T03:39:52.556Z,90.64
2023-10-06T03:40:51.826Z,90.74
2023-10-06T03:41:52.997Z,90.88
2023-10-06T03:42:52.250Z,90.99
2023-10-06T03:43:52.673Z,91.09
2023-10-06T03:44:51.554Z,91.29
2023-10-06T03:45:52.746Z,91.50
2023-10-06T03:46:53.036Z,91.60
2023-10-06T03:47:52.201Z,91.70
2023-10-06T03:48:52.565Z,92.01
2023-10-06T03:49:51.578Z,92.11
2023-10-06T03:50:51.744Z,92.11
2023-10-06T03:51:51.979Z,92.21
2023-10-06T03:52:52.235Z,92.21
2023-10-06T03:53:51.389Z,92.32
2023-10-06T03:54:51.611Z,92.42
2023-10-06T03:55:51.807Z,92.52
2023-10-06T03:56:51.997Z,92.62
2023-10-06T03:57:52.186Z,92.72
2023-10-06T03:58:51.373Z,92.52
2023-10-06T03:59:51.589Z,92.42
2023-10-06T04:00:51.806Z,92.32
2023-10-06T04:01:52.065Z,92.21
2023-10-06T04:02:52.346Z,92.07
2023-10-06T04:03:51.379Z,91.96
2023-10-06T04:04:52.532Z,91.86
2023-10-06T04:05:52.790Z,91.76
2023-10-06T04:06:52.046Z,91.76
2023-10-06T04:07:52.170Z,91.76
2023-10-06T04:08:51.420Z,91.76
2023-10-06T04:09:52.589Z,91.46
2023-10-06T04:10:52.877Z,91.35
2023-10-06T04:11:52.095Z,91.15
2023-10-06T04:12:51.307Z,91.05
2023-10-06T04:13:52.478Z,91.05
2023-10-06T04:14:51.708Z,91.05
2023-10-06T04:15:52.011Z,90.94
2023-10-06T04:16:51.139Z,90.80
2023-10-06T04:17:51.583Z,90.70
2023-10-06T04:18:51.543Z,90.59
2023-10-06T04:19:51.751Z,90.49
2023-10-06T04:20:51.953Z,90.39
2023-10-06T04:21:51.114Z,90.29
2023-10-06T04:22:51.331Z,90.29
2023-10-06T04:23:51.994Z,90.29
2023-10-06T04:24:51.712Z,90.29
2023-10-06T04:25:51.921Z,90.19
2023-10-06T04:26:52.032Z,90.08
2023-10-06T04:27:51.295Z,90.08
2023-10-06T04:28:52.428Z,90.08
2023-10-06T04:29:51.792Z,89.98
2023-10-06T04:30:51.893Z,90.19
2023-10-06T04:31:51.125Z,90.19
2023-10-06T04:32:51.242Z,90.29
2023-10-06T04:33:51.472Z,90.19
2023-10-06T04:34:51.707Z,90.19
2023-10-06T04:35:50.858Z,90.19
2023-10-06T04:36:51.046Z,90.19
2023-10-06T04:37:51.316Z,90.29
2023-10-06T04:38:51.501Z,90.19
2023-10-06T04:39:52.702Z,90.08
2023-10-06T04:40:51.290Z,89.98
2023-10-06T04:41:51.121Z,89.98
2023-10-06T04:42:51.293Z,89.88
2023-10-06T04:43:51.499Z,90.08
2023-10-06T04:44:53.305Z,90.23
2023-10-06T04:45:50.852Z,90.33
2023-10-06T04:46:51.060Z,90.43
2023-10-06T04:47:51.261Z,90.43
2023-10-06T04:48:51.403Z,90.53
2023-10-06T04:49:51.659Z,90.43
2023-10-06T04:50:50.796Z,90.33
2023-10-06T04:51:51.025Z,90.33
2023-10-06T04:52:51.279Z,90.43
2023-10-06T04:53:51.485Z,90.74
2023-10-06T04:54:50.616Z,90.84
2023-10-06T04:55:50.857Z,91.05
2023-10-06T04:56:51.056Z,91.09
2023-10-06T04:57:51.281Z,91.19
2023-10-06T04:58:51.542Z,91.29
2023-10-06T04:59:51.622Z,91.19
2023-10-06T05:00:50.889Z,91.19
2023-10-06T05:01:51.253Z,91.19
2023-10-06T05:02:51.382Z,91.19
2023-10-06T05:03:50.504Z,91.09
2023-10-06T05:04:50.735Z,91.09
2023-10-06T05:05:50.894Z,91.09
2023-10-06T05:06:51.111Z,90.99
2023-10-06T05:07:51.341Z,90.99
2023-10-06T05:08:50.920Z,91.13
2023-10-06T05:09:51.631Z,91.23
2023-10-06T05:10:50.970Z,91.33
2023-10-06T05:11:51.095Z,91.54
2023-10-06T05:12:51.295Z,91.64
2023-10-06T05:13:50.863Z,91.64
2023-10-06T05:14:50.740Z,91.74
2023-10-06T05:15:50.912Z,91.85
2023-10-06T05:16:52.076Z,91.95
2023-10-06T05:17:51.431Z,91.95
2023-10-06T05:18:50.456Z,91.95
2023-10-06T05:19:51.728Z,91.95
2023-10-06T05:20:51.269Z,91.95
2023-10-06T05:21:51.058Z,91.85
2023-10-06T05:22:50.262Z,91.85
2023-10-06T05:23:50.454Z,91.85
2023-10-06T05:24:50.664Z,91.85
2023-10-06T05:25:50.920Z,91.74
2023-10-06T05:26:51.227Z,91.64
2023-10-06T05:27:50.295Z,91.54
2023-10-06T05:28:50.508Z,91.64
2023-10-06T05:29:50.675Z,91.64
2023-10-06T05:30:50.863Z,91.74
2023-10-06T05:31:51.182Z,91.85
2023-10-06T05:32:50.372Z,91.95
2023-10-06T05:33:51.436Z,91.95
2023-10-06T05:34:50.742Z,91.95
2023-10-06T05:35:50.889Z,91.95
2023-10-06T05:36:50.079Z,91.95
2023-10-06T05:37:51.250Z,91.99
2023-10-06T05:38:50.702Z,91.99
2023-10-06T05:39:51.619Z,92.10
2023-10-06T05:40:50.910Z,92.10
2023-10-06T05:41:50.012Z,92.19
2023-10-06T05:42:50.242Z,92.40
2023-10-06T05:43:50.532Z,92.50
2023-10-06T05:44:50.724Z,92.60
2023-10-06T05:45:50.860Z,92.75
2023-10-06T05:46:50.048Z,92.71
2023-10-06T05:47:50.231Z,92.75
2023-10-06T05:48:50.397Z,92.85
2023-10-06T05:49:50.588Z,92.81
2023-10-06T05:50:50.873Z,92.91
2023-10-06T05:51:49.995Z,92.96
2023-10-06T05:52:50.190Z,93.06
2023-10-06T05:53:50.376Z,93.06
2023-10-06T05:54:50.597Z,93.06
2023-10-06T05:55:49.787Z,93.06
2023-10-06T05:56:50.108Z,93.16
2023-10-06T05:57:50.174Z,93.16
2023-10-06T05:58:50.394Z,93.26
2023-10-06T05:59:51.570Z,93.37
2023-10-06T06:00:50.768Z,93.37
2023-10-06T06:01:50.955Z,93.22
2023-10-06T06:02:50.369Z,93.22
2023-10-06T06:03:50.443Z,93.32
2023-10-06T06:04:50.684Z,93.12
2023-10-06T06:05:49.810Z,93.12
2023-10-06T06:06:50.026Z,93.12
2023-10-06T06:07:50.275Z,93.22
2023-10-06T06:08:50.545Z,93.22
2023-10-06T06:09:49.612Z,93.32
2023-10-06T06:10:49.933Z,93.32
2023-10-06T06:11:50.126Z,93.32
2023-10-06T06:12:50.261Z,93.22
2023-10-06T06:14:02.482Z,93.22
2023-10-06T06:14:50.767Z,93.12
2023-10-06T06:15:49.960Z,92.91
2023-10-06T06:16:50.163Z,92.81
2023-10-06T06:17:50.403Z,92.66
2023-10-06T06:18:50.056Z,92.66
2023-10-06T06:19:49.777Z,92.56
2023-10-06T06:20:50.081Z,92.56
2023-10-06T06:21:50.231Z,92.66
2023-10-06T06:22:50.390Z,92.66
2023-10-06T06:23:49.591Z,92.87
2023-10-06T06:24:49.801Z,92.97
2023-10-06T06:25:50.139Z,93.07
2023-10-06T06:26:50.272Z,93.07
2023-10-06T06:27:49.436Z,93.07
2023-10-06T06:28:49.671Z,93.07
2023-10-06T06:29:49.918Z,92.97
2023-10-06T06:30:50.144Z,92.87
2023-10-06T06:31:49.732Z,92.87
2023-10-06T06:32:49.567Z,92.93
2023-10-06T06:33:50.802Z,92.72
2023-10-06T06:34:49.948Z,92.62
2023-10-06T06:35:50.143Z,92.52
2023-10-06T06:36:50.238Z,92.42
2023-10-06T06:37:49.803Z,92.42
2023-10-06T06:38:49.777Z,92.21
2023-10-06T06:39:49.995Z,92.11
2023-10-06T06:40:50.238Z,92.11
2023-10-06T06:41:49.335Z,92.01
2023-10-06T06:42:49.573Z,91.91
2023-10-06T06:43:49.889Z,91.66
2023-10-06T06:44:50.980Z,91.76
2023-10-06T06:45:49.218Z,91.86
2023-10-06T06:46:50.450Z,91.86
2023-10-06T06:47:49.676Z,91.86
2023-10-06T06:48:49.897Z,91.86
2023-10-06T06:49:49.087Z,91.76
2023-10-06T06:50:50.230Z,91.86
2023-10-06T06:51:50.424Z,91.86
2023-10-06T06:52:50.662Z,91.56
2023-10-06T06:53:49.909Z,91.46
2023-10-06T06:54:49.145Z,91.35
2023-10-06T06:55:49.309Z,91.41
2023-10-06T06:56:49.521Z,91.52
2023-10-06T06:57:56.038Z,91.52
2023-10-06T06:58:49.899Z,91.61
2023-10-06T06:59:49.185Z,91.52
2023-10-06T07:00:51.432Z,91.52
2023-10-06T07:01:49.092Z,91.52
2023-10-06T07:02:49.223Z,91.31
2023-10-06T07:03:49.073Z,91.20
2023-10-06T07:04:50.187Z,91.20
2023-10-06T07:05:49.372Z,91.20
2023-10-06T07:06:49.582Z,91.31
2023-10-06T07:07:50.356Z,91.31
2023-10-06T07:08:48.939Z,91.37
2023-10-06T07:09:49.179Z,91.47
2023-10-06T07:10:50.360Z,91.57
2023-10-06T07:11:49.624Z,91.57
2023-10-06T07:12:48.772Z,91.57
2023-10-06T07:13:49.955Z,91.57
2023-10-06T07:14:50.100Z,91.57
2023-10-06T07:15:49.360Z,91.67
2023-10-06T07:16:50.520Z,91.67
2023-10-06T07:17:48.926Z,91.67
2023-10-06T07:18:49.009Z,91.78
2023-10-06T07:19:49.226Z,91.78
2023-10-06T07:20:49.386Z,91.88
2023-10-06T07:21:49.557Z,91.83
2023-10-06T07:22:48.755Z,91.83
2023-10-06T07:23:48.933Z,91.74
2023-10-06T07:24:49.122Z,91.63
2023-10-06T07:25:49.354Z,91.63
2023-10-06T07:26:50.459Z,91.63
2023-10-06T07:27:49.719Z,91.53
2023-10-06T07:28:48.919Z,91.53
2023-10-06T07:29:49.545Z,91.28
2023-10-06T07:30:49.331Z,91.08
2023-10-06T07:31:49.573Z,90.98
2023-10-06T07:32:49.695Z,90.88
2023-10-06T07:33:49.855Z,90.88
2023-10-06T07:34:49.107Z,90.88
2023-10-06T07:35:49.316Z,90.98
2023-10-06T07:36:48.461Z,91.08
2023-10-06T07:37:48.694Z,91.08
2023-10-06T07:38:48.864Z,91.44
2023-10-06T07:39:49.116Z,91.44
2023-10-06T07:40:49.331Z,91.44
2023-10-06T07:41:48.488Z,91.44
2023-10-06T07:42:48.700Z,91.55
2023-10-06T07:43:49.959Z,91.55
2023-10-06T07:44:49.011Z,91.75
2023-10-06T07:45:49.241Z,91.50
2023-10-06T07:46:48.461Z,91.71
2023-10-06T07:47:48.666Z,91.50
2023-10-06T07:48:48.807Z,91.46
2023-10-06T07:49:49.029Z,91.66
2023-10-06T07:50:49.201Z,91.16
2023-10-06T07:51:48.404Z,90.24
2023-10-06T07:52:48.584Z,89.22
2023-10-06T07:53:48.811Z,88.46
2023-10-06T07:54:48.960Z,88.77
2023-10-06T07:55:49.127Z,87.55
2023-10-06T07:56:48.295Z,87.55
2023-10-06T07:57:48.539Z,88.02
2023-10-06T07:58:48.800Z,88.02
2023-10-06T07:59:49.044Z,87.71
2023-10-06T08:00:48.093Z,87.20
2023-10-06T08:01:48.337Z,85.98
2023-10-06T08:02:48.562Z,85.53
2023-10-06T08:03:48.746Z,85.94
2023-10-06T08:04:48.897Z,85.94
2023-10-06T08:05:48.129Z,85.74
2023-10-06T08:06:48.272Z,86.41
2023-10-06T08:07:49.445Z,86.10
2023-10-06T08:08:48.634Z,85.70
2023-10-06T08:09:49.770Z,85.60
2023-10-06T08:10:47.990Z,85.70
2023-10-06T08:11:48.182Z,84.58
2023-10-06T08:12:48.359Z,85.49
2023-10-06T08:13:49.533Z,83.62
2023-10-06T08:14:48.702Z,84.03
2023-10-06T08:15:48.911Z,84.54
2023-10-06T08:16:48.102Z,86.37
2023-10-06T08:17:48.292Z,84.54
2023-10-06T08:18:48.375Z,83.12
2023-10-06T08:19:48.651Z,83.01
2023-10-06T08:20:48.756Z,83.22
2023-10-06T08:21:47.913Z,83.22
2023-10-06T08:22:49.026Z,84.13
2023-10-06T08:23:48.292Z,84.74
2023-10-06T08:24:48.426Z,83.83
2023-10-06T08:25:59.764Z,84.03
2023-10-06T08:26:49.733Z,82.81
2023-10-06T08:27:47.873Z,83.42
2023-10-06T08:28:48.070Z,82.92
2023-10-06T08:29:48.235Z,82.51
2023-10-06T08:30:49.317Z,83.99
2023-10-06T08:31:48.596Z,84.40
2023-10-06T08:32:47.753Z,84.91
2023-10-06T08:33:48.035Z,83.38
2023-10-06T08:34:48.119Z,83.08
2023-10-06T08:35:48.281Z,83.89
2023-10-06T08:36:48.749Z,82.78
2023-10-06T08:37:48.696Z,83.79
2023-10-06T08:38:47.950Z,82.57
2023-10-06T08:39:47.889Z,81.96
2023-10-06T08:40:49.267Z,80.74
2023-10-06T08:41:49.759Z,81.25
2023-10-06T08:42:49.334Z,81.76
2023-10-06T08:43:49.520Z,81.45
2023-10-06T08:44:47.630Z,82.17
2023-10-06T08:45:49.019Z,80.64
2023-10-06T08:46:48.182Z,80.13
2023-10-06T08:47:59.871Z,81.82
2023-10-06T08:48:49.377Z,81.62
2023-10-06T08:49:48.516Z,81.92
2023-10-06T08:50:47.565Z,81.52
2023-10-06T08:51:47.743Z,82.84
2023-10-06T08:52:47.996Z,82.73
2023-10-06T08:53:48.076Z,81.68
2023-10-06T08:54:48.235Z,80.77
2023-10-06T08:55:47.371Z,80.36
2023-10-06T08:56:47.536Z,80.77
2023-10-06T08:57:47.703Z,80.36
2023-10-06T08:58:47.931Z,80.66
2023-10-06T08:59:48.048Z,79.31
2023-10-06T09:00:48.208Z,80.02
2023-10-06T09:01:47.360Z,78.60
2023-10-06T09:02:47.513Z,78.09
2023-10-06T09:03:47.646Z,79.51
2023-10-06T09:04:47.879Z,81.20
2023-10-06T09:05:47.954Z,80.59
2023-10-06T09:06:49.042Z,78.97
2023-10-06T09:07:48.194Z,78.66
2023-10-06T09:08:50.146Z,78.26
2023-10-06T09:09:48.522Z,78.77
2023-10-06T09:10:47.778Z,78.66
2023-10-06T09:11:48.817Z,78.36
2023-10-06T09:12:48.026Z,78.02
2023-10-06T09:13:48.193Z,78.12
2023-10-06T09:14:47.272Z,80.45
2023-10-06T09:15:47.406Z,77.01
2023-10-06T09:16:47.664Z,77.82
2023-10-06T09:17:47.718Z,78.12
2023-10-06T09:18:48.824Z,77.41
2023-10-06T09:19:48.062Z,79.24
2023-10-06T09:20:48.088Z,78.83
2023-10-06T09:21:48.191Z,77.82
2023-10-06T09:22:47.509Z,79.10
2023-10-06T09:23:47.747Z,78.59
2023-10-06T09:24:48.553Z,76.87
2023-10-06T09:25:48.874Z,77.88
2023-10-06T09:26:48.067Z,77.37
2023-10-06T09:27:46.973Z,78.59
2023-10-06T09:28:47.279Z,79.20
2023-10-06T09:29:47.303Z,77.48
2023-10-06T09:30:47.518Z,78.19
2023-10-06T09:31:47.566Z,77.68
2023-10-06T09:32:47.782Z,78.89
2023-10-06T09:33:47.961Z,78.89
2023-10-06T09:34:47.034Z,77.98
2023-10-06T09:35:47.152Z,76.46
2023-10-06T09:36:47.320Z,76.26
2023-10-06T09:37:47.476Z,76.46
2023-10-06T09:38:47.641Z,80.01
2023-10-06T09:39:47.863Z,80.62
2023-10-06T09:40:46.944Z,78.19
2023-10-06T09:41:48.021Z,75.65
2023-10-06T09:42:48.222Z,78.25
2023-10-06T09:43:48.353Z,76.53
2023-10-06T09:44:47.573Z,75.01
2023-10-06T09:45:47.771Z,78.05
2023-10-06T09:46:48.059Z,78.66
2023-10-06T09:47:47.135Z,79.46
2023-10-06T09:48:48.187Z,76.90
2023-10-06T09:49:47.655Z,74.98
2023-10-06T09:50:47.454Z,75.11
2023-10-06T09:51:47.672Z,74.81
2023-10-06T09:52:46.758Z,75.72
2023-10-06T09:53:46.910Z,76.79
2023-10-06T09:54:47.084Z,75.48
2023-10-06T09:55:47.200Z,77.50
2023-10-06T09:56:47.354Z,76.90
2023-10-06T09:57:47.567Z,75.28
2023-10-06T09:58:47.663Z,79.43
2023-10-06T09:59:46.778Z,78.52
2023-10-06T10:00:47.036Z,77.67
2023-10-06T10:01:48.153Z,75.34
2023-10-06T10:02:47.506Z,77.77
2023-10-06T10:03:47.834Z,77.26
2023-10-06T10:04:47.612Z,75.14
2023-10-06T10:05:47.765Z,73.99
2023-10-06T10:06:47.914Z,75.10
2023-10-06T10:07:47.128Z,76.62
2023-10-06T10:08:47.288Z,76.62
2023-10-06T10:09:46.478Z,75.31
2023-10-06T10:10:46.574Z,74.60
2023-10-06T10:11:46.807Z,74.19
2023-10-06T10:12:46.924Z,75.31
2023-10-06T10:13:47.079Z,75.81
2023-10-06T10:14:47.258Z,73.19
2023-10-06T10:15:46.415Z,73.90
2023-10-06T10:16:46.583Z,73.39
2023-10-06T10:17:47.706Z,73.90
2023-10-06T10:18:46.887Z,74.19
2023-10-06T10:19:47.039Z,75.37
2023-10-06T10:20:47.200Z,74.26
2023-10-06T10:21:46.353Z,75.57
2023-10-06T10:22:46.514Z,77.09
2023-10-06T10:23:47.581Z,75.84
2023-10-06T10:25:46.954Z,73.89
2023-10-06T10:26:47.028Z,73.69
2023-10-06T10:27:46.192Z,74.40
2023-10-06T10:28:46.296Z,73.99
2023-10-06T10:29:47.401Z,72.88
2023-10-06T10:30:46.584Z,72.98
2023-10-06T10:32:00.134Z,73.58
2023-10-06T10:32:47.907Z,72.07
2023-10-06T10:33:47.970Z,70.59
2023-10-06T10:34:46.102Z,71.30
2023-10-06T10:35:46.302Z,72.00
2023-10-06T10:36:46.401Z,71.91
2023-10-06T10:37:46.580Z,71.47
2023-10-06T10:38:47.620Z,71.67
2023-10-06T10:39:47.760Z,73.38
2023-10-06T10:40:48.137Z,72.48
2023-10-06T10:41:47.037Z,71.53
2023-10-06T10:42:46.188Z,71.84
2023-10-06T10:43:46.680Z,71.23
2023-10-06T10:44:46.528Z,71.03
2023-10-06T10:45:47.569Z,72.14
2023-10-06T10:46:47.755Z,70.93
2023-10-06T10:47:46.997Z,70.73
2023-10-06T10:48:45.992Z,69.01
2023-10-06T10:49:46.177Z,71.17
2023-10-06T10:50:46.285Z,71.73
2023-10-06T10:51:46.417Z,70.73
2023-10-06T10:52:47.535Z,71.73
2023-10-06T10:53:47.718Z,71.73
2023-10-06T10:54:45.864Z,70.22
2023-10-06T10:55:46.046Z,70.73
2023-10-06T10:56:47.128Z,70.62
2023-10-06T10:57:47.318Z,69.42
2023-10-06T10:58:47.387Z,71.94
2023-10-06T10:59:47.546Z,69.72
2023-10-06T11:00:47.772Z,70.53
2023-10-06T11:01:46.773Z,71.20
2023-10-06T11:02:46.959Z,73.62
2023-10-06T11:03:47.084Z,70.69
2023-10-06T11:04:47.193Z,71.06
2023-10-06T11:05:47.341Z,69.35
2023-10-06T11:06:46.544Z,69.45
2023-10-06T11:07:46.656Z,71.26
2023-10-06T11:08:45.742Z,71.26
2023-10-06T11:09:47.959Z,71.13
2023-10-06T11:10:46.058Z,68.91
2023-10-06T11:11:46.150Z,69.82
2023-10-06T11:12:47.275Z,68.51
2023-10-06T11:13:54.373Z,71.94
2023-10-06T11:14:46.644Z,70.73
2023-10-06T11:15:45.679Z,68.81
2023-10-06T11:16:45.846Z,66.70
2023-10-06T11:17:45.966Z,67.00
2023-10-06T11:18:46.149Z,68.71
2023-10-06T11:19:47.187Z,67.30
2023-10-06T11:20:47.311Z,67.60
2023-10-06T11:21:46.442Z,67.71
2023-10-06T11:22:46.566Z,68.01
2023-10-06T11:23:46.763Z,69.72
2023-10-06T11:24:45.932Z,66.70
2023-10-06T11:25:46.073Z,67.91
2023-10-06T11:26:47.112Z,67.68
2023-10-06T11:27:47.328Z,68.08
2023-10-06T11:28:45.435Z,68.28
2023-10-06T11:29:45.555Z,69.45
2023-10-06T11:30:46.771Z,67.07
2023-10-06T11:31:45.826Z,67.37
2023-10-06T11:32:46.034Z,66.36
2023-10-06T11:33:46.122Z,66.77
2023-10-06T11:34:46.270Z,66.27
2023-10-06T11:35:46.368Z,67.94
2023-10-06T11:36:46.470Z,68.35
2023-10-06T11:37:46.584Z,66.63
2023-10-06T11:38:46.710Z,66.60
2023-10-06T11:39:50.003Z,65.80
2023-10-06T11:40:46.086Z,64.79
2023-10-06T11:41:46.160Z,65.19
2023-10-06T11:42:46.250Z,64.29
2023-10-06T11:43:46.434Z,65.30
2023-10-06T11:44:46.502Z,67.61
2023-10-06T11:45:46.636Z,67.07
2023-10-06T11:46:45.818Z,65.77
2023-10-06T11:47:47.120Z,65.77
2023-10-06T11:48:47.113Z,64.56
2023-10-06T11:49:46.205Z,65.77
2023-10-06T11:50:46.279Z,64.96
2023-10-06T11:51:45.520Z,64.06
2023-10-06T11:52:45.567Z,65.56
2023-10-06T11:53:45.750Z,67.58
2023-10-06T11:54:45.818Z,65.77
2023-10-06T11:55:45.931Z,66.47
2023-10-06T11:56:45.020Z,64.16
2023-10-06T11:57:45.143Z,65.77
2023-10-06T11:58:45.465Z,65.26
2023-10-06T11:59:45.477Z,64.36
2023-10-06T12:00:45.557Z,66.44
2023-10-06T12:01:45.763Z,65.23
2023-10-06T12:02:46.972Z,65.73
2023-10-06T12:03:45.080Z,64.90
2023-10-06T12:04:45.103Z,65.13
2023-10-06T12:05:45.209Z,65.30
2023-10-06T12:06:45.307Z,64.60
2023-10-06T12:07:45.476Z,65.00
2023-10-06T12:08:45.585Z,65.41
2023-10-06T12:09:45.686Z,63.39
2023-10-06T12:10:45.897Z,66.81
2023-10-06T12:11:44.921Z,63.49
2023-10-06T12:12:45.046Z,60.88
2023-10-06T12:13:45.177Z,61.61
2023-10-06T12:14:45.357Z,62.52
2023-10-06T12:15:45.569Z,62.15
2023-10-06T12:16:45.755Z,62.95
2023-10-06T12:17:45.811Z,63.35
2023-10-06T12:18:44.896Z,61.85
2023-10-06T12:19:44.973Z,64.06
2023-10-06T12:20:45.122Z,63.76
2023-10-06T12:21:45.254Z,67.68
2023-10-06T12:22:45.449Z,63.76
2023-10-06T12:23:45.536Z,62.95
2023-10-06T12:24:45.627Z,64.66
2023-10-06T12:25:44.748Z,65.16
2023-10-06T12:26:44.870Z,65.77
2023-10-06T12:27:45.364Z,65.06
2023-10-06T12:28:45.250Z,62.15
2023-10-06T12:29:45.307Z,61.67
2023-10-06T12:30:45.500Z,63.89
2023-10-06T12:31:45.548Z,63.28
2023-10-06T12:32:44.642Z,65.36
2023-10-06T12:33:44.867Z,65.87
2023-10-06T12:34:44.967Z,64.06
2023-10-06T12:35:44.993Z,66.97
2023-10-06T12:36:45.142Z,64.53
2023-10-06T12:37:45.291Z,63.42
2023-10-06T12:38:45.452Z,64.83
2023-10-06T12:39:44.493Z,63.79
2023-10-06T12:40:44.722Z,63.39
2023-10-06T12:41:44.779Z,63.39
2023-10-06T12:42:44.917Z,63.09
2023-10-06T12:43:46.036Z,64.90
2023-10-06T12:44:46.192Z,64.23
2023-10-06T12:45:45.302Z,63.53
2023-10-06T12:46:44.421Z,63.39
2023-10-06T12:47:44.596Z,63.39
2023-10-06T12:48:45.710Z,62.19
2023-10-06T12:49:44.836Z,60.78
2023-10-06T12:50:44.994Z,62.29
2023-10-06T12:51:45.399Z,62.79
2023-10-06T12:52:45.272Z,61.25
2023-10-06T12:53:45.340Z,62.16